Time;durP1;ratioP1;P1;durP2;ratioP2;P2;SDS_P1;SDS_P2;PMS_P1;PMS_P2;Temp;Humidity;BMP_temperature;BMP_pressure;BME280_temperature;BME280_humidity;BME280_pressure;Samples;Min_cycle;Max_cycle;Signal;HPM_P1;HPM_P2
2022/01/12 00:01:56;;;;;;;146.85;45.97;;;3.60;99.90;;;;;;5004153;28;20139;-51
2022/01/12 00:04:22;;;;;;;132.55;43.50;;;3.60;99.90;;;;;;5005379;28;20053;-49
2022/01/12 00:06:48;;;;;;;155.65;45.40;;;3.60;99.90;;;;;;5026301;28;20179;-48
2022/01/12 00:09:14;;;;;;;138.15;41.75;;;3.70;99.90;;;;;;5023604;28;20480;-46
2022/01/12 00:11:40;;;;;;;156.23;43.08;;;3.70;99.90;;;;;;5017677;28;20174;-47
2022/01/12 00:14:06;;;;;;;152.02;42.13;;;3.60;99.90;;;;;;5021861;28;20123;-48
2022/01/12 00:16:32;;;;;;;138.77;39.92;;;3.70;99.90;;;;;;5022017;28;20059;-50
2022/01/12 00:18:59;;;;;;;127.70;40.80;;;3.60;99.90;;;;;;5021067;28;20075;-48
2022/01/12 00:21:24;;;;;;;103.85;38.83;;;3.70;99.90;;;;;;5027112;28;20353;-47
2022/01/12 00:23:50;;;;;;;101.78;38.78;;;3.70;99.90;;;;;;5022798;28;20529;-47
2022/01/12 00:34:26;;;;;;;153.98;42.83;;;3.80;99.90;;;;;;5022841;28;20492;-48
2022/01/12 00:36:52;;;;;;;175.40;44.88;;;3.70;99.90;;;;;;5026602;28;20040;-47
2022/01/12 00:39:18;;;;;;;149.93;41.38;;;3.80;99.90;;;;;;5020968;28;20124;-47
2022/01/12 00:41:44;;;;;;;172.82;43.25;;;3.80;99.90;;;;;;5021216;28;20049;-47
2022/01/12 00:44:11;;;;;;;162.18;41.58;;;3.80;99.90;;;;;;5022130;28;20408;-47
2022/01/12 00:46:39;;;;;;;164.18;42.00;;;3.70;99.90;;;;;;5017711;28;20095;-47
2022/01/12 00:49:06;;;;;;;117.55;39.53;;;3.80;99.90;;;;;;4967471;28;20232;-48
2022/01/12 00:51:33;;;;;;;265.70;48.20;;;3.80;99.90;;;;;;5020839;28;20152;-48
2022/01/12 00:54:01;;;;;;;142.02;41.22;;;3.80;99.90;;;;;;5021918;28;20063;-49
2022/01/12 00:56:27;;;;;;;140.30;40.65;;;3.80;99.90;;;;;;5022966;28;20584;-47
2022/01/12 00:58:53;;;;;;;252.48;47.30;;;3.70;99.90;;;;;;5021139;28;20049;-48
2022/01/12 01:01:20;;;;;;;207.30;45.65;;;3.80;99.90;;;;;;5001753;28;20057;-47
2022/01/12 01:03:50;;;;;;;136.02;40.90;;;3.80;99.90;;;;;;5022490;28;20448;-50
2022/01/12 01:06:17;;;;;;;188.55;46.33;;;3.80;99.90;;;;;;5022403;28;20195;-48
2022/01/12 01:08:44;;;;;;;256.65;48.33;;;3.70;99.90;;;;;;4986634;28;20093;-48
2022/01/12 01:11:13;;;;;;;123.70;37.30;;;3.80;99.90;;;;;;5013620;28;20049;-50
2022/01/12 01:13:48;;;;;;;247.25;47.42;;;3.80;99.90;;;;;;5004493;28;20065;-47
2022/01/12 01:26:57;;;;;;;227.85;45.05;;;3.80;99.90;;;;;;5022160;28;20129;-46
2022/01/12 01:29:23;;;;;;;316.55;49.50;;;3.70;99.90;;;;;;5020252;28;20061;-48
2022/01/12 01:31:49;;;;;;;199.23;45.42;;;3.80;99.90;;;;;;5020541;28;20068;-47
2022/01/12 01:34:16;;;;;;;223.98;45.00;;;3.80;99.90;;;;;;5022548;28;20507;-48
2022/01/12 01:36:51;;;;;;;220.20;45.22;;;3.70;99.90;;;;;;5000720;28;20108;-51
2022/01/12 01:39:22;;;;;;;235.88;47.22;;;3.70;99.90;;;;;;5020118;28;20579;-46
2022/01/12 01:41:56;;;;;;;200.65;45.70;;;3.80;99.90;;;;;;5016410;28;20049;-47
2022/01/12 01:55:10;;;;;;;166.70;43.83;;;3.80;99.90;;;;;;5016695;28;20137;-46
2022/01/12 01:57:36;;;;;;;182.65;44.22;;;3.90;99.90;;;;;;5024752;28;20124;-47
2022/01/12 02:00:06;;;;;;;193.18;45.25;;;3.90;99.90;;;;;;5024608;28;20041;-50
2022/01/12 02:02:32;;;;;;;255.35;49.22;;;3.90;99.90;;;;;;5006210;28;20492;-47
2022/01/12 02:04:58;;;;;;;166.13;45.30;;;3.90;99.90;;;;;;5004776;28;20148;-50
2022/01/12 02:07:24;;;;;;;221.73;48.92;;;3.90;99.90;;;;;;5024155;28;20052;-48
2022/01/12 02:09:50;;;;;;;205.60;44.95;;;4.00;99.90;;;;;;5005927;28;20061;-47
2022/01/12 02:12:28;;;;;;;175.23;43.60;;;4.00;99.90;;;;;;5023121;28;20088;-48
2022/01/12 02:14:55;;;;;;;225.40;46.22;;;3.90;99.90;;;;;;5025142;28;20395;-47
2022/01/12 02:17:27;;;;;;;125.60;40.30;;;3.90;99.90;;;;;;5025116;28;20689;-47
2022/01/12 02:20:14;;;;;;;113.68;37.75;;;4.10;99.90;;;;;;5024962;28;20049;-47
2022/01/12 02:36:31;;;;;;;165.48;37.22;;;4.00;99.90;;;;;;5027239;28;20061;-48
2022/01/12 02:41:42;;;;;;;105.97;32.58;;;3.90;99.90;;;;;;5017321;28;20054;-49
2022/01/12 02:54:51;;;;;;;106.53;32.20;;;3.80;99.90;;;;;;5023388;28;20053;-47
2022/01/12 02:57:18;;;;;;;106.90;32.00;;;3.80;99.90;;;;;;4996674;28;20054;-47
2022/01/12 03:05:20;;;;;;;115.50;32.00;;;3.80;99.90;;;;;;5022749;28;20345;-47
2022/01/12 03:07:44;;;;;;;90.32;28.73;;;3.80;99.90;;;;;;5000258;28;20517;-51
2022/01/12 03:10:11;;;;;;;99.65;30.70;;;3.70;99.90;;;;;;4998636;28;20067;-49
2022/01/12 03:12:43;;;;;;;131.93;31.67;;;3.70;99.90;;;;;;5021942;28;20042;-50
2022/01/12 03:15:09;;;;;;;80.82;28.35;;;3.70;99.90;;;;;;5023229;28;20046;-50
2022/01/12 03:17:35;;;;;;;74.25;27.17;;;3.70;99.90;;;;;;5005470;28;20527;-47
2022/01/12 03:20:03;;;;;;;95.70;30.75;;;3.70;99.90;;;;;;5023510;28;20049;-48
2022/01/12 03:22:28;;;;;;;81.18;27.73;;;3.70;99.90;;;;;;5006616;28;20052;-47
2022/01/12 03:24:54;;;;;;;108.60;29.67;;;3.70;99.90;;;;;;5017399;28;20045;-46
2022/01/12 03:27:22;;;;;;;117.50;31.65;;;3.70;99.90;;;;;;5006168;28;20542;-46
2022/01/12 03:29:51;;;;;;;123.65;30.17;;;3.70;99.90;;;;;;5023858;28;20054;-52
2022/01/12 03:32:22;;;;;;;102.07;30.75;;;3.70;99.90;;;;;;5025743;28;20053;-46
2022/01/12 03:34:55;;;;;;;141.13;30.67;;;3.60;99.90;;;;;;5024762;28;20499;-48
2022/01/12 03:40:05;;;;;;;158.57;30.75;;;3.60;99.90;;;;;;5023793;28;20056;-51
2022/01/12 03:42:31;;;;;;;131.95;30.17;;;3.60;99.90;;;;;;5016612;28;20041;-47
2022/01/12 03:44:57;;;;;;;180.20;28.35;;;3.40;99.90;;;;;;5023757;28;20049;-47
2022/01/12 03:47:23;;;;;;;399.83;34.78;;;3.40;99.90;;;;;;5005293;28;20407;-47
2022/01/12 03:49:49;;;;;;;465.83;39.60;;;3.30;99.90;;;;;;5004201;28;20393;-50
2022/01/12 03:52:14;;;;;;;391.42;34.00;;;3.20;99.90;;;;;;5000678;28;20135;-47
2022/01/12 03:54:40;;;;;;;555.28;38.63;;;3.10;99.90;;;;;;5004564;28;20462;-48
2022/01/12 03:57:06;;;;;;;543.20;36.58;;;3.00;99.90;;;;;;5005326;28;20127;-48
2022/01/12 03:59:32;;;;;;;571.17;38.53;;;2.90;99.90;;;;;;5022654;28;20041;-48
2022/01/12 04:01:58;;;;;;;585.33;37.08;;;2.70;99.90;;;;;;5022648;28;20103;-49
2022/01/12 04:04:32;;;;;;;514.40;33.13;;;2.60;99.90;;;;;;5022917;28;20049;-48
2022/01/12 04:09:44;;;;;;;496.33;32.28;;;2.50;99.90;;;;;;5015924;28;20582;-47
2022/01/12 04:12:09;;;;;;;395.65;25.50;;;2.40;99.90;;;;;;5020801;28;20077;-47
2022/01/12 04:14:35;;;;;;;436.75;29.00;;;2.20;99.90;;;;;;5022331;28;20647;-49
2022/01/12 04:17:01;;;;;;;265.13;19.60;;;2.20;99.90;;;;;;5021711;28;20629;-46
2022/01/12 04:19:27;;;;;;;343.55;22.70;;;2.00;99.90;;;;;;4995895;28;20624;-47
2022/01/12 04:21:53;;;;;;;279.73;20.27;;;2.00;99.90;;;;;;5028104;28;20076;-49
2022/01/12 04:24:19;;;;;;;115.78;13.48;;;2.00;99.90;;;;;;5015064;28;20045;-47
2022/01/12 04:26:45;;;;;;;82.90;11.57;;;2.00;99.90;;;;;;5021820;28;20049;-47
2022/01/12 04:29:12;;;;;;;110.85;14.48;;;1.90;99.90;;;;;;5021154;28;20136;-47
2022/01/12 04:31:38;;;;;;;176.00;19.15;;;1.90;99.90;;;;;;5021690;28;20049;-47
2022/01/12 04:34:05;;;;;;;220.55;17.60;;;1.80;99.90;;;;;;5025639;28;20102;-46
2022/01/12 04:36:32;;;;;;;157.88;13.88;;;1.90;99.90;;;;;;5013762;28;20385;-48
2022/01/12 04:38:58;;;;;;;254.52;18.55;;;1.70;99.90;;;;;;5024584;28;20054;-47
2022/01/12 04:41:24;;;;;;;248.73;18.88;;;1.60;99.90;;;;;;5006765;28;20107;-50
2022/01/12 04:43:51;;;;;;;264.30;19.00;;;1.60;99.90;;;;;;5016111;28;21190;-51
2022/01/12 04:46:24;;;;;;;371.55;24.65;;;1.60;99.90;;;;;;5021745;28;20060;-50
2022/01/12 04:51:19;;;;;;;358.00;23.33;;;1.50;99.90;;;;;;5020293;28;20091;-47
2022/01/12 04:53:45;;;;;;;349.63;22.73;;;1.50;99.90;;;;;;5021189;28;20383;-47
2022/01/12 04:56:12;;;;;;;374.15;23.50;;;1.60;99.90;;;;;;5003423;28;20041;-48
2022/01/12 04:58:40;;;;;;;285.25;17.95;;;1.50;99.90;;;;;;5022131;28;20100;-48
2022/01/12 05:01:14;;;;;;;318.77;20.30;;;1.60;99.90;;;;;;5020443;28;20061;-47
2022/01/12 05:14:21;;;;;;;262.35;19.30;;;1.30;99.90;;;;;;5016010;28;20049;-46
2022/01/12 05:16:46;;;;;;;263.77;20.08;;;1.30;99.90;;;;;;5004098;28;20488;-46
2022/01/12 05:19:12;;;;;;;263.00;21.83;;;1.20;99.90;;;;;;5021746;28;20049;-48
2022/01/12 05:21:38;;;;;;;178.23;17.75;;;1.20;99.90;;;;;;5021210;28;20042;-47
2022/01/12 05:24:06;;;;;;;189.02;18.27;;;1.00;99.90;;;;;;5004578;28;20574;-47
2022/01/12 05:26:34;;;;;;;231.02;20.45;;;1.00;99.90;;;;;;5003551;28;20056;-47
2022/01/12 05:28:59;;;;;;;262.83;20.20;;;1.00;99.90;;;;;;5020497;28;20144;-47
2022/01/12 05:31:26;;;;;;;278.35;22.77;;;1.00;99.90;;;;;;5020986;28;20075;-48
2022/01/12 05:33:52;;;;;;;256.17;18.65;;;0.90;99.90;;;;;;5005413;28;20057;-47
2022/01/12 05:36:18;;;;;;;230.65;19.23;;;0.90;99.90;;;;;;5004566;28;20488;-47
2022/01/12 05:38:45;;;;;;;338.33;25.67;;;0.80;99.90;;;;;;5019659;28;20571;-46
2022/01/12 05:41:11;;;;;;;231.40;19.33;;;0.80;99.90;;;;;;5021443;28;20053;-48
2022/01/12 05:43:39;;;;;;;226.18;19.30;;;0.70;99.90;;;;;;5021811;28;20091;-47
2022/01/12 05:46:11;;;;;;;215.32;19.58;;;0.80;99.90;;;;;;5022144;28;20050;-47
2022/01/12 05:51:24;;;;;;;227.73;18.50;;;0.70;99.90;;;;;;5018145;28;20058;-47
2022/01/12 05:53:50;;;;;;;139.10;14.00;;;0.70;99.90;;;;;;5016748;28;20064;-47
2022/01/12 05:56:16;;;;;;;196.23;16.38;;;0.60;99.90;;;;;;5021175;28;21300;-48
2022/01/12 05:58:42;;;;;;;185.23;17.58;;;0.60;99.90;;;;;;5020970;28;20095;-47
2022/01/12 06:01:08;;;;;;;222.48;20.67;;;0.70;99.90;;;;;;5020531;28;20049;-50
2022/01/12 06:03:34;;;;;;;242.27;19.67;;;0.70;99.90;;;;;;5002651;28;20062;-47
2022/01/12 06:06:00;;;;;;;257.25;21.30;;;0.70;99.90;;;;;;4996064;28;20053;-46
2022/01/12 06:08:26;;;;;;;318.17;24.70;;;0.80;99.90;;;;;;5020870;28;20113;-48
2022/01/12 06:10:51;;;;;;;321.83;24.65;;;0.70;99.90;;;;;;5018875;28;20507;-46
2022/01/12 06:13:17;;;;;;;332.00;24.95;;;0.80;99.90;;;;;;5020465;28;20049;-47
2022/01/12 06:15:43;;;;;;;259.92;21.50;;;0.70;99.90;;;;;;5002447;28;20053;-47
2022/01/12 06:18:09;;;;;;;231.27;20.85;;;0.70;99.90;;;;;;5020724;28;20500;-46
2022/01/12 06:20:35;;;;;;;227.48;22.63;;;0.70;99.90;;;;;;5020360;28;20080;-46
2022/01/12 06:23:01;;;;;;;189.73;19.10;;;0.70;99.90;;;;;;5021231;28;20176;-47
2022/01/12 06:25:26;;;;;;;193.73;20.90;;;0.60;99.90;;;;;;5010573;28;20053;-48
2022/01/12 06:27:59;;;;;;;168.15;18.38;;;0.70;99.90;;;;;;5021227;28;20047;-47
2022/01/12 06:32:56;;;;;;;163.00;16.65;;;0.70;99.90;;;;;;5020542;28;20061;-47
2022/01/12 06:35:23;;;;;;;100.45;14.25;;;0.60;99.90;;;;;;5029932;28;20439;-49
2022/01/12 06:37:50;;;;;;;146.13;16.10;;;0.60;99.90;;;;;;5019945;28;20508;-49
2022/01/12 06:40:20;;;;;;;122.15;15.70;;;0.60;99.90;;;;;;5021802;28;20475;-47
2022/01/12 06:42:46;;;;;;;118.22;15.02;;;0.70;99.90;;;;;;5007284;28;20087;-47
2022/01/12 06:45:13;;;;;;;76.20;12.68;;;0.70;99.90;;;;;;5024112;28;20467;-47
2022/01/12 06:47:39;;;;;;;99.38;13.70;;;0.70;99.90;;;;;;5002954;28;20100;-46
2022/01/12 06:50:06;;;;;;;131.23;16.77;;;0.70;99.90;;;;;;5024211;28;20053;-46
2022/01/12 06:52:33;;;;;;;106.97;14.27;;;0.80;99.90;;;;;;4999358;28;20092;-47
2022/01/12 06:55:00;;;;;;;86.25;13.63;;;0.70;99.90;;;;;;5009048;28;20049;-47
2022/01/12 06:57:26;;;;;;;127.50;15.20;;;0.70;99.90;;;;;;5025584;28;20652;-47
2022/01/12 06:59:52;;;;;;;46.90;10.82;;;0.70;99.90;;;;;;5005006;28;20923;-47
2022/01/12 07:02:17;;;;;;;160.93;17.58;;;0.70;99.90;;;;;;5021622;28;20047;-50
2022/01/12 07:04:43;;;;;;;125.05;15.65;;;0.70;99.90;;;;;;5007523;28;20041;-47
2022/01/12 07:07:10;;;;;;;138.20;15.98;;;0.70;99.90;;;;;;5024715;28;20143;-48
2022/01/12 07:09:36;;;;;;;215.70;19.52;;;0.80;99.90;;;;;;5005326;28;20053;-46
2022/01/12 07:12:02;;;;;;;238.82;21.45;;;0.80;99.90;;;;;;5013039;28;20046;-46
2022/01/12 07:14:27;;;;;;;257.17;23.85;;;0.70;99.90;;;;;;5002831;28;20084;-45
2022/01/12 07:16:53;;;;;;;258.45;23.85;;;0.80;99.90;;;;;;5023562;28;20072;-49
2022/01/12 07:19:19;;;;;;;223.45;23.05;;;0.80;99.90;;;;;;5023838;28;20085;-46
2022/01/12 07:21:45;;;;;;;210.75;19.80;;;0.80;99.90;;;;;;5005626;28;20045;-45
2022/01/12 07:24:13;;;;;;;180.02;18.63;;;0.80;99.90;;;;;;5006033;28;20629;-46
2022/01/12 07:26:39;;;;;;;176.70;18.42;;;0.90;99.90;;;;;;5006071;28;20425;-46
2022/01/12 07:29:05;;;;;;;227.45;22.20;;;0.90;99.90;;;;;;5023049;28;20089;-46
2022/01/12 07:31:32;;;;;;;171.20;18.05;;;1.00;99.90;;;;;;5022398;28;20042;-45
2022/01/12 07:33:58;;;;;;;161.75;17.42;;;0.90;99.90;;;;;;5027348;28;20041;-48
2022/01/12 07:36:23;;;;;;;170.02;18.48;;;1.00;99.90;;;;;;5025562;28;20415;-46
2022/01/12 07:38:54;;;;;;;200.73;19.23;;;1.10;99.90;;;;;;5008961;28;20557;-49
2022/01/12 07:41:20;;;;;;;171.43;18.63;;;1.10;99.90;;;;;;5023107;28;20049;-48
2022/01/12 07:43:45;;;;;;;169.00;18.08;;;1.20;99.90;;;;;;5005675;28;20072;-49
2022/01/12 07:46:11;;;;;;;199.60;18.70;;;1.30;99.90;;;;;;5020998;28;20403;-47
2022/01/12 07:48:37;;;;;;;154.77;17.80;;;1.30;99.90;;;;;;5023247;28;20496;-47
2022/01/12 07:51:03;;;;;;;103.38;17.05;;;1.30;99.90;;;;;;5003154;28;20573;-46
2022/01/12 07:53:29;;;;;;;77.78;15.18;;;1.40;99.90;;;;;;5022440;28;20127;-48
2022/01/12 07:55:55;;;;;;;89.10;14.88;;;1.40;99.90;;;;;;5023753;28;20947;-45
2022/01/12 07:58:21;;;;;;;103.97;15.75;;;1.40;99.90;;;;;;5023227;28;20157;-47
2022/01/12 08:00:46;;;;;;;100.65;16.65;;;1.50;99.90;;;;;;5022978;28;20049;-48
2022/01/12 08:03:12;;;;;;;122.70;17.00;;;1.40;99.90;;;;;;5026016;28;20059;-47
2022/01/12 08:05:38;;;;;;;107.18;14.80;;;1.40;99.90;;;;;;4988188;28;20136;-46
2022/01/12 08:08:04;;;;;;;87.57;13.77;;;1.50;99.90;;;;;;5004628;28;20088;-47
2022/01/12 08:10:30;;;;;;;88.53;14.57;;;1.50;99.90;;;;;;5022228;28;20406;-47
2022/01/12 08:12:57;;;;;;;67.65;14.25;;;1.50;99.90;;;;;;5021678;28;20056;-46
2022/01/12 08:15:24;;;;;;;116.10;16.23;;;1.50;99.90;;;;;;4987845;28;20112;-48
2022/01/12 08:17:50;;;;;;;78.85;15.73;;;1.60;99.90;;;;;;4997507;28;20440;-46
2022/01/12 08:20:21;;;;;;;77.78;15.93;;;1.60;99.90;;;;;;5022480;28;20046;-45
2022/01/12 08:22:46;;;;;;;97.28;16.48;;;1.70;99.90;;;;;;5022778;28;20080;-47
2022/01/12 08:25:12;;;;;;;70.78;15.82;;;1.60;99.90;;;;;;5023197;28;20361;-48
2022/01/12 08:27:39;;;;;;;89.68;16.85;;;1.80;99.90;;;;;;5022898;28;20135;-47
2022/01/12 08:30:14;;;;;;;66.55;15.38;;;1.80;99.90;;;;;;5021311;28;20507;-49
2022/01/12 08:32:40;;;;;;;108.22;16.08;;;1.90;99.90;;;;;;5029174;28;20057;-46
2022/01/12 08:35:06;;;;;;;91.35;15.60;;;2.00;99.90;;;;;;5028202;28;20075;-46
2022/01/12 08:37:32;;;;;;;102.90;15.85;;;1.90;99.90;;;;;;5016806;28;20095;-46
2022/01/12 08:39:58;;;;;;;111.28;15.90;;;2.00;99.90;;;;;;5021882;28;20486;-46
2022/01/12 08:42:24;;;;;;;133.98;16.08;;;2.10;99.90;;;;;;5022544;28;20484;-47
2022/01/12 08:44:49;;;;;;;115.72;15.65;;;2.10;99.90;;;;;;5003572;28;20085;-46
2022/01/12 08:47:15;;;;;;;122.53;15.88;;;2.20;99.90;;;;;;5015218;28;20080;-47
2022/01/12 08:49:41;;;;;;;148.77;16.27;;;2.20;99.90;;;;;;5015503;28;20377;-47
2022/01/12 08:52:07;;;;;;;178.43;18.88;;;2.30;99.90;;;;;;4998915;28;20049;-47
2022/01/12 08:54:33;;;;;;;178.48;17.73;;;2.40;99.90;;;;;;5018958;28;20452;-46
2022/01/12 08:56:59;;;;;;;129.73;15.93;;;2.30;99.90;;;;;;5021968;28;20049;-47
2022/01/12 08:59:25;;;;;;;179.30;18.45;;;2.40;99.90;;;;;;5003522;28;20053;-45
2022/01/12 09:01:50;;;;;;;124.13;15.60;;;2.50;99.90;;;;;;5021715;28;20049;-47
2022/01/12 09:04:16;;;;;;;154.57;18.65;;;2.50;99.90;;;;;;5002187;28;20056;-46
2022/01/12 09:06:42;;;;;;;173.77;20.17;;;2.60;99.90;;;;;;5022461;28;20049;-47
2022/01/12 09:09:08;;;;;;;85.85;14.10;;;2.60;99.90;;;;;;5024459;28;20052;-48
2022/01/12 09:11:33;;;;;;;221.57;20.48;;;2.60;99.90;;;;;;5003251;28;20052;-49
2022/01/12 09:13:59;;;;;;;163.52;17.05;;;2.70;99.90;;;;;;5021621;28;20085;-48
2022/01/12 09:16:25;;;;;;;149.88;16.45;;;2.80;99.90;;;;;;5022844;28;20045;-48
2022/01/12 09:18:51;;;;;;;162.95;15.90;;;2.70;99.90;;;;;;5007808;28;20526;-46
2022/01/12 09:21:17;;;;;;;148.95;17.13;;;2.80;99.90;;;;;;5016970;28;20608;-49
2022/01/12 09:23:44;;;;;;;157.73;17.85;;;2.90;99.90;;;;;;5021669;28;20053;-46
2022/01/12 09:26:11;;;;;;;146.18;16.42;;;2.90;99.90;;;;;;5020205;28;20180;-46
2022/01/12 09:28:36;;;;;;;139.60;16.52;;;2.90;99.90;;;;;;5020677;28;20519;-48
2022/01/12 09:31:02;;;;;;;162.48;18.98;;;3.00;99.90;;;;;;5020338;28;20053;-47
2022/01/12 09:33:28;;;;;;;123.03;15.45;;;3.10;99.90;;;;;;5019992;28;20147;-47
2022/01/12 09:35:54;;;;;;;125.57;16.60;;;3.10;99.90;;;;;;5021030;28;20052;-47
2022/01/12 09:38:22;;;;;;;98.70;14.65;;;3.10;99.90;;;;;;5020074;28;20423;-46
2022/01/12 09:40:52;;;;;;;109.22;15.05;;;3.20;99.90;;;;;;5019908;28;20046;-46
2022/01/12 09:43:18;;;;;;;147.98;18.63;;;3.30;99.90;;;;;;4994723;28;20061;-49
2022/01/12 09:45:49;;;;;;;131.52;15.93;;;3.30;99.90;;;;;;5014857;28;20076;-48
2022/01/12 09:48:18;;;;;;;90.30;13.95;;;3.40;99.90;;;;;;5018527;28;20407;-46
2022/01/12 09:50:44;;;;;;;106.72;12.70;;;3.40;99.90;;;;;;4997889;28;20057;-46
2022/01/12 09:53:10;;;;;;;104.40;13.27;;;3.60;99.90;;;;;;5019705;28;20049;-47
2022/01/12 09:55:35;;;;;;;85.32;11.90;;;3.50;99.90;;;;;;5025171;28;20053;-46
2022/01/12 09:58:02;;;;;;;115.32;13.32;;;3.50;99.90;;;;;;5021086;28;20052;-46
2022/01/12 10:00:28;;;;;;;46.15;8.43;;;3.60;99.90;;;;;;5017633;28;20451;-49
2022/01/12 10:02:55;;;;;;;80.03;11.45;;;3.60;99.90;;;;;;5015034;28;20058;-47
2022/01/12 10:05:30;;;;;;;152.00;13.60;;;3.60;99.90;;;;;;5022473;28;20544;-46
2022/01/12 10:08:07;;;;;;;121.22;12.77;;;3.70;99.90;;;;;;5019913;28;20080;-49
2022/01/12 10:10:33;;;;;;;121.65;12.27;;;3.70;99.90;;;;;;5021763;28;20061;-48
2022/01/12 10:12:59;;;;;;;103.70;12.18;;;3.60;99.90;;;;;;5004565;28;20064;-46
2022/01/12 10:15:29;;;;;;;64.57;10.35;;;3.70;99.90;;;;;;5008076;28;20097;-48
2022/01/12 10:18:01;;;;;;;172.95;15.18;;;3.90;99.90;;;;;;5028587;28;20057;-50
2022/01/12 10:20:26;;;;;;;131.93;11.88;;;3.90;99.90;;;;;;5025692;28;20057;-49
2022/01/12 10:23:06;;;;;;;123.22;12.32;;;3.90;99.90;;;;;;5000216;28;20145;-47
2022/01/12 10:25:33;;;;;;;127.63;11.57;;;4.00;99.90;;;;;;5028563;28;20125;-47
2022/01/12 10:28:11;;;;;;;127.50;11.32;;;4.10;99.90;;;;;;4998855;28;20077;-46
2022/01/12 10:30:37;;;;;;;106.35;10.35;;;4.00;99.90;;;;;;5022319;28;20053;-47
2022/01/12 10:33:09;;;;;;;137.18;10.75;;;4.10;99.90;;;;;;5025977;28;20061;-47
2022/01/12 10:35:41;;;;;;;161.85;13.18;;;4.10;99.90;;;;;;5027265;28;20049;-49
2022/01/12 10:38:08;;;;;;;109.97;10.20;;;4.20;99.90;;;;;;5023302;28;20099;-47
2022/01/12 10:40:50;;;;;;;143.50;12.30;;;4.20;99.90;;;;;;5023520;28;20065;-46
2022/01/12 10:43:37;;;;;;;122.82;11.57;;;4.30;99.90;;;;;;5018729;28;20049;-45
2022/01/12 10:46:09;;;;;;;154.30;11.48;;;4.20;99.90;;;;;;5024341;28;20053;-47
2022/01/12 10:48:39;;;;;;;136.10;11.07;;;4.30;99.90;;;;;;5005393;28;20057;-46
2022/01/12 10:51:07;;;;;;;137.80;10.77;;;4.30;99.90;;;;;;5023001;28;20399;-48
2022/01/12 10:53:34;;;;;;;180.85;12.35;;;4.40;99.90;;;;;;5022580;28;20650;-46
2022/01/12 10:56:10;;;;;;;174.73;11.75;;;4.40;99.90;;;;;;5006362;28;20500;-50
2022/01/12 10:58:38;;;;;;;162.15;11.23;;;4.40;99.90;;;;;;5023842;28;20103;-47
2022/01/12 11:01:04;;;;;;;113.90;9.63;;;4.40;99.90;;;;;;5005386;28;20061;-46
2022/01/12 11:03:31;;;;;;;111.28;9.45;;;4.50;99.90;;;;;;5023806;28;20085;-46
2022/01/12 11:05:58;;;;;;;148.35;10.82;;;4.50;99.90;;;;;;5021077;28;20583;-46
2022/01/12 11:08:25;;;;;;;147.80;11.00;;;4.50;99.90;;;;;;5023825;28;20186;-46
2022/01/12 11:10:53;;;;;;;136.20;9.73;;;4.50;99.90;;;;;;5023228;28;20459;-48
2022/01/12 11:13:19;;;;;;;119.32;9.85;;;4.50;99.90;;;;;;5013594;28;20128;-47
2022/01/12 11:15:45;;;;;;;158.43;11.30;;;4.60;99.90;;;;;;5002149;28;20141;-48
2022/01/12 11:18:13;;;;;;;103.40;9.23;;;4.60;99.90;;;;;;5021656;28;20410;-47
2022/01/12 11:20:42;;;;;;;122.88;11.30;;;4.60;99.90;;;;;;5022160;28;20084;-48
2022/01/12 11:23:11;;;;;;;94.55;9.20;;;4.70;99.90;;;;;;5024689;28;20204;-49
2022/01/12 11:25:46;;;;;;;76.25;9.07;;;4.70;99.90;;;;;;5029350;28;20499;-46
2022/01/12 11:28:19;;;;;;;83.70;9.35;;;4.70;99.90;;;;;;5027741;28;20053;-47
2022/01/12 11:30:59;;;;;;;70.43;9.10;;;4.70;99.90;;;;;;5015455;28;20061;-52
2022/01/12 11:33:33;;;;;;;87.50;10.65;;;4.80;99.90;;;;;;5028313;28;20053;-48
2022/01/12 11:36:04;;;;;;;118.55;11.75;;;4.80;99.90;;;;;;5027264;28;20052;-49
2022/01/12 11:38:34;;;;;;;57.58;9.55;;;4.80;99.90;;;;;;5023621;28;20563;-46
2022/01/12 11:41:23;;;;;;;102.03;10.43;;;4.80;99.90;;;;;;5023092;28;20145;-46
2022/01/12 11:43:57;;;;;;;116.90;10.95;;;4.80;99.90;;;;;;5016384;28;20558;-47
2022/01/12 11:46:39;;;;;;;59.30;8.50;;;4.90;99.90;;;;;;5003964;28;20103;-46
2022/01/12 11:49:05;;;;;;;110.43;11.63;;;4.90;99.90;;;;;;5005266;28;20061;-49
2022/01/12 11:51:42;;;;;;;83.95;11.07;;;4.90;99.90;;;;;;5020913;28;20072;-46
2022/01/12 11:54:16;;;;;;;76.05;11.55;;;5.00;99.90;;;;;;5003793;28;20069;-47
2022/01/12 11:57:03;;;;;;;67.13;10.88;;;5.10;99.90;;;;;;5020928;28;20073;-47
2022/01/12 11:59:52;;;;;;;93.82;11.43;;;5.10;99.90;;;;;;5017735;28;20123;-46
2022/01/12 12:02:20;;;;;;;58.45;9.68;;;5.10;99.90;;;;;;5023188;28;20064;-46
2022/01/12 12:04:54;;;;;;;73.65;11.52;;;5.10;99.90;;;;;;5022535;28;20041;-46
2022/01/12 12:07:22;;;;;;;64.30;10.95;;;5.10;99.90;;;;;;5004135;28;20069;-46
2022/01/12 12:09:54;;;;;;;40.90;9.57;;;5.10;99.90;;;;;;5023183;28;20084;-46
2022/01/12 12:12:20;;;;;;;41.35;9.23;;;5.20;99.90;;;;;;5010711;28;20280;-48
2022/01/12 12:14:53;;;;;;;46.55;9.82;;;5.10;99.90;;;;;;5003579;28;20128;-50
2022/01/12 12:17:20;;;;;;;26.17;8.02;;;5.30;99.90;;;;;;5013213;28;20491;-47
2022/01/12 12:19:47;;;;;;;41.70;9.00;;;5.30;99.90;;;;;;5005910;28;20501;-47
2022/01/12 12:22:17;;;;;;;67.40;8.95;;;5.20;99.90;;;;;;5013227;28;20041;-47
2022/01/12 12:24:44;;;;;;;57.42;9.52;;;5.20;99.90;;;;;;5003252;28;20075;-48
2022/01/12 12:27:11;;;;;;;61.45;9.15;;;5.20;99.90;;;;;;5019738;28;20051;-47
2022/01/12 12:29:38;;;;;;;39.38;9.23;;;5.30;99.90;;;;;;5021316;28;20462;-47
2022/01/12 12:32:06;;;;;;;56.45;9.35;;;5.30;99.90;;;;;;4993972;28;20053;-49
2022/01/12 12:34:35;;;;;;;47.63;9.98;;;5.30;99.90;;;;;;5030364;28;20045;-48
2022/01/12 12:37:04;;;;;;;46.90;9.13;;;5.30;99.90;;;;;;5024520;28;20471;-49
2022/01/12 12:39:35;;;;;;;47.17;9.02;;;5.40;99.90;;;;;;5024650;28;20239;-49
2022/01/12 12:42:04;;;;;;;59.95;9.45;;;5.30;99.90;;;;;;5016639;28;20050;-49
2022/01/12 12:44:32;;;;;;;40.10;9.23;;;5.30;99.90;;;;;;5008023;28;20052;-49
2022/01/12 12:47:18;;;;;;;72.35;11.35;;;5.40;99.90;;;;;;5005472;28;20046;-48
2022/01/12 12:49:57;;;;;;;66.38;9.80;;;5.40;99.90;;;;;;5009433;28;20124;-48
2022/01/12 12:52:32;;;;;;;48.90;10.38;;;5.30;99.90;;;;;;5007470;28;20475;-48
2022/01/12 12:55:25;;;;;;;24.40;7.65;;;5.40;99.90;;;;;;5008757;28;20053;-47
2022/01/12 12:57:53;;;;;;;47.40;9.93;;;5.40;99.90;;;;;;5018064;28;20053;-47
2022/01/12 13:00:24;;;;;;;45.47;10.52;;;5.50;99.90;;;;;;5021650;28;20420;-47
2022/01/12 13:02:52;;;;;;;30.70;9.18;;;5.50;99.90;;;;;;5019767;28;20068;-47
2022/01/12 13:05:25;;;;;;;27.90;9.95;;;5.50;99.90;;;;;;5023915;28;20210;-47
2022/01/12 13:07:53;;;;;;;47.08;10.90;;;5.60;99.90;;;;;;4992499;28;20166;-47
2022/01/12 13:10:25;;;;;;;40.65;10.13;;;5.60;99.90;;;;;;5020973;28;20056;-48
2022/01/12 13:12:56;;;;;;;39.15;10.02;;;5.70;99.90;;;;;;5020407;28;20060;-50
2022/01/12 13:15:27;;;;;;;29.58;10.18;;;5.70;99.90;;;;;;5020089;28;20087;-48
2022/01/12 13:18:10;;;;;;;28.90;9.10;;;5.70;99.90;;;;;;5019049;28;20125;-47
2022/01/12 13:23:29;;;;;;;45.40;10.20;;;5.70;99.90;;;;;;5002556;28;20163;-50
2022/01/12 13:25:58;;;;;;;46.33;10.65;;;5.70;99.90;;;;;;5003376;28;20065;-47
2022/01/12 13:28:24;;;;;;;76.97;11.95;;;5.80;99.90;;;;;;4998812;28;20152;-50
2022/01/12 13:31:00;;;;;;;55.08;11.68;;;5.70;99.90;;;;;;5019600;28;20058;-48
2022/01/12 13:33:38;;;;;;;38.97;10.90;;;5.70;99.90;;;;;;5027418;28;20420;-49
2022/01/12 13:36:24;;;;;;;50.40;10.98;;;5.70;99.90;;;;;;5000027;28;20131;-49
2022/01/12 13:39:08;;;;;;;46.65;11.95;;;5.70;99.90;;;;;;5014385;28;20104;-47
2022/01/12 13:41:39;;;;;;;59.00;12.25;;;5.60;99.90;;;;;;5018447;28;20045;-49
2022/01/12 13:44:08;;;;;;;32.42;11.77;;;5.60;99.90;;;;;;5022767;28;20049;-47
2022/01/12 13:46:44;;;;;;;39.60;12.60;;;5.60;99.90;;;;;;5022604;28;20045;-50
2022/01/12 13:52:01;;;;;;;51.83;12.95;;;5.60;99.90;;;;;;5018847;28;20057;-48
2022/01/12 13:54:30;;;;;;;54.33;13.10;;;5.70;99.90;;;;;;5007526;28;20100;-48
2022/01/12 13:56:57;;;;;;;36.88;12.82;;;5.60;99.90;;;;;;5007113;28;20053;-47
2022/01/12 13:59:27;;;;;;;43.17;11.10;;;5.60;99.90;;;;;;5024910;28;20127;-47
2022/01/12 14:01:54;;;;;;;47.35;12.85;;;5.60;99.90;;;;;;4991772;28;20062;-49
2022/01/12 14:05:18;;;;;;;42.25;11.55;;;5.50;99.90;;;;;;5024945;28;20054;-47
2022/01/12 14:07:25;;;;;;;56.20;13.23;;;5.50;99.90;;;;;;5006415;28;20128;-48
2022/01/12 14:09:57;;;;;;;53.00;13.35;;;5.50;99.90;;;;;;5007292;28;20569;-48